Time;durP1;ratioP1;P1;durP2;ratioP2;P2;SDS_P1;SDS_P2;PMS_P1;PMS_P2;Temp;Humidity;BMP_temperature;BMP_pressure;BME280_temperature;BME280_humidity;BME280_pressure;Samples;Min_cycle;Max_cycle;Signal;HPM_P1;HPM_P2
2021/01/27 00:01:48;;;;;;;26.70;17.88;;;;;;;3.11;100.00;100357.22;4958641;28;20031;-73
2021/01/27 00:04:34;;;;;;;24.42;16.58;;;;;;;3.62;100.00;100350.59;4959639;29;20444;-73
2021/01/27 00:07:19;;;;;;;24.13;16.23;;;;;;;3.62;100.00;100350.59;4960193;28;20031;-74
2021/01/27 00:10:06;;;;;;;24.98;16.80;;;;;;;3.49;100.00;100364.34;4958931;29;20027;-74
2021/01/27 00:12:52;;;;;;;24.40;16.15;;;;;;;3.51;100.00;100357.47;4959378;28;20036;-74
2021/01/27 00:15:40;;;;;;;24.02;15.90;;;;;;;3.19;100.00;100355.53;4945132;28;20031;-73
2021/01/27 00:18:26;;;;;;;23.27;16.02;;;;;;;3.75;100.00;100356.69;4959855;28;20027;-74
2021/01/27 00:21:12;;;;;;;22.02;15.90;;;;;;;3.48;100.00;100360.03;4959441;28;20479;-73
2021/01/27 00:23:58;;;;;;;27.42;17.92;;;;;;;3.21;100.00;100359.84;4945405;28;20042;-73
2021/01/27 00:26:44;;;;;;;24.30;17.02;;;;;;;3.66;100.00;100351.47;4944727;28;20035;-73
2021/01/27 00:29:29;;;;;;;26.67;17.80;;;;;;;3.52;100.00;100355.72;4945710;28;20034;-73
2021/01/27 00:32:15;;;;;;;24.50;17.15;;;;;;;3.11;100.00;100360.69;4957991;28;20027;-74
2021/01/27 00:35:01;;;;;;;26.85;18.08;;;;;;;3.51;100.00;100356.59;4963743;28;20047;-75
2021/01/27 00:37:47;;;;;;;27.45;18.65;;;;;;;3.57;100.00;100357.47;4977816;28;20034;-73
2021/01/27 00:40:32;;;;;;;28.35;19.50;;;;;;;3.87;100.00;100356.75;4964932;28;20045;-73
2021/01/27 00:43:19;;;;;;;26.77;17.65;;;;;;;3.87;100.00;100344.63;4976821;28;20440;-73
2021/01/27 00:46:04;;;;;;;31.58;20.58;;;;;;;3.36;100.00;100344.44;4962784;28;20046;-73
2021/01/27 00:48:50;;;;;;;34.55;21.23;;;;;;;3.37;100.00;100359.09;4976875;28;20030;-74
2021/01/27 00:51:37;;;;;;;33.80;21.50;;;;;;;2.93;100.00;100351.91;4976728;28;20096;-74
2021/01/27 00:54:23;;;;;;;32.70;20.60;;;;;;;3.28;100.00;100358.16;4977431;28;20423;-73
2021/01/27 00:57:08;;;;;;;31.00;20.77;;;;;;;3.31;100.00;100350.44;4976562;28;20034;-73
2021/01/27 00:59:54;;;;;;;28.20;18.92;;;;;;;3.60;100.00;100346.25;4976643;28;20035;-74
2021/01/27 01:02:40;;;;;;;28.10;18.35;;;;;;;3.72;100.00;100335.94;4963607;28;20062;-74
2021/01/27 01:05:38;;;;;;;30.05;19.45;;;;;;;3.34;100.00;100338.34;4977570;28;20030;-74
2021/01/27 01:08:24;;;;;;;34.08;21.52;;;;;;;3.23;100.00;100334.00;4976222;28;20041;-74
2021/01/27 01:11:10;;;;;;;28.75;18.60;;;;;;;3.23;100.00;100334.00;4964167;28;20061;-74
2021/01/27 01:13:56;;;;;;;26.95;18.52;;;;;;;3.57;100.00;100330.69;4976244;28;20138;-73
2021/01/27 01:16:42;;;;;;;30.98;20.35;;;;;;;3.41;100.00;100323.72;4977612;28;20034;-74
2021/01/27 01:19:27;;;;;;;29.83;19.40;;;;;;;3.34;100.00;100322.81;4976612;28;20097;-74
2021/01/27 01:22:13;;;;;;;30.67;18.77;;;;;;;3.18;100.00;100318.41;4964015;28;20026;-73
2021/01/27 01:24:59;;;;;;;30.70;19.52;;;;;;;3.63;100.00;100321.25;4962378;28;20344;-74
2021/01/27 01:27:44;;;;;;;29.25;19.27;;;;;;;3.49;100.00;100317.72;4964020;28;20487;-74
2021/01/27 01:30:39;;;;;;;30.02;19.67;;;;;;;3.64;100.00;100319.50;4976937;28;20033;-74
2021/01/27 01:33:30;;;;;;;29.60;19.55;;;;;;;3.29;100.00;100314.19;4976391;28;20038;-74
2021/01/27 01:36:16;;;;;;;25.73;17.60;;;;;;;3.66;100.00;100308.28;4976116;28;20074;-74
2021/01/27 01:39:02;;;;;;;26.48;17.40;;;;;;;3.41;100.00;100314.25;4976383;28;20022;-74
2021/01/27 01:41:48;;;;;;;28.05;18.42;;;;;;;3.39;100.00;100309.91;4977119;28;20117;-73
2021/01/27 01:44:34;;;;;;;26.90;18.20;;;;;;;3.35;100.00;100311.63;4976091;28;20046;-73
2021/01/27 01:47:19;;;;;;;34.70;21.35;;;;;;;3.25;100.00;100312.44;4976431;28;20049;-73
2021/01/27 01:50:05;;;;;;;29.02;19.10;;;;;;;3.50;100.00;100322.03;4975550;28;20032;-73
2021/01/27 01:52:54;;;;;;;25.15;17.02;;;;;;;3.53;100.00;100324.66;4975938;28;20427;-73
2021/01/27 01:55:41;;;;;;;29.58;19.25;;;;;;;3.69;100.00;100315.19;4976115;28;20034;-72
2021/01/27 01:58:28;;;;;;;29.58;17.95;;;;;;;3.55;100.00;100317.78;4976353;28;20058;-73
2021/01/27 02:01:14;;;;;;;30.42;19.42;;;;;;;3.57;100.00;100322.94;4975780;28;20125;-74
2021/01/27 02:03:59;;;;;;;33.90;21.45;;;;;;;3.64;100.00;100312.63;4976469;28;20030;-74
2021/01/27 02:06:45;;;;;;;33.53;21.15;;;;;;;3.29;100.00;100311.59;4977202;28;20054;-73
2021/01/27 02:09:31;;;;;;;32.38;20.55;;;;;;;3.41;100.00;100309.06;4975342;28;20452;-73
2021/01/27 02:12:50;;;;;;;37.50;22.70;;;;;;;3.52;100.00;100301.34;4975957;28;20039;-73
2021/01/27 02:15:58;;;;;;;30.30;19.83;;;;;;;3.54;100.00;100290.13;4975868;28;20367;-74
2021/01/27 02:19:08;;;;;;;28.77;18.58;;;;;;;3.28;100.00;100286.56;4975925;28;20459;-74
2021/01/27 02:22:02;;;;;;;32.78;20.10;;;;;;;3.08;100.00;100293.38;4962238;28;20031;-73
2021/01/27 02:25:22;;;;;;;30.15;19.08;;;;;;;2.56;100.00;100295.56;4975402;28;20027;-73
2021/01/27 02:28:20;;;;;;;34.53;21.52;;;;;;;2.98;100.00;100295.91;4975333;28;20081;-74
2021/01/27 02:31:15;;;;;;;30.77;19.35;;;;;;;2.96;100.00;100307.94;4961340;28;20419;-74
2021/01/27 02:34:31;;;;;;;33.35;20.48;;;;;;;3.24;100.00;100305.53;4962067;28;20049;-74
2021/01/27 02:37:23;;;;;;;29.60;19.00;;;;;;;3.44;100.00;100318.56;4962347;28;20071;-74
2021/01/27 02:40:22;;;;;;;30.60;19.52;;;;;;;3.25;100.00;100329.66;4975204;28;20057;-74
2021/01/27 02:43:11;;;;;;;28.08;17.95;;;;;;;2.98;100.00;100332.97;4975177;28;20463;-74
2021/01/27 02:46:17;;;;;;;31.83;19.35;;;;;;;2.69;100.00;100333.63;4975943;28;20030;-74
2021/01/27 02:49:14;;;;;;;28.10;17.45;;;;;;;2.56;100.00;100331.78;4975151;28;20576;-73
2021/01/27 02:52:11;;;;;;;27.58;16.90;;;;;;;2.60;100.00;100331.81;4975004;28;20077;-74
2021/01/27 02:55:09;;;;;;;24.77;15.43;;;;;;;2.49;100.00;100330.03;4975283;28;20361;-74
2021/01/27 02:58:03;;;;;;;23.90;14.88;;;;;;;2.32;100.00;100329.84;4974901;28;20042;-74
2021/01/27 03:00:56;;;;;;;26.10;15.30;;;;;;;2.32;100.00;100334.16;4962136;28;20027;-74
2021/01/27 03:03:45;;;;;;;24.92;15.40;;;;;;;2.21;100.00;100334.03;4974533;28;20031;-75
2021/01/27 03:06:32;;;;;;;23.70;14.15;;;;;;;1.96;100.00;100326.03;4961412;28;20027;-75
2021/01/27 03:09:36;;;;;;;23.33;13.70;;;;;;;1.80;100.00;100324.16;4975623;28;20058;-75
2021/01/27 03:12:22;;;;;;;19.40;12.02;;;;;;;1.79;100.00;100320.69;4975740;28;20050;-75
2021/01/27 03:15:10;;;;;;;21.02;12.38;;;;;;;1.53;100.00;100324.69;4974609;28;20105;-75
2021/01/27 03:17:59;;;;;;;20.65;12.40;;;;;;;1.73;100.00;100312.03;4976051;28;20034;-74
2021/01/27 03:20:47;;;;;;;22.38;13.23;;;;;;;1.49;100.00;100320.31;4974564;28;20117;-75
2021/01/27 03:23:50;;;;;;;21.08;13.27;;;;;;;1.47;100.00;100328.91;4978643;28;20527;-74
2021/01/27 03:26:45;;;;;;;25.63;14.60;;;;;;;1.54;100.00;100326.44;4978162;28;20023;-74
2021/01/27 03:29:57;;;;;;;28.85;15.77;;;;;;;1.71;100.00;100336.94;4965066;28;20069;-73
2021/01/27 03:32:54;;;;;;;37.33;19.73;;;;;;;1.56;100.00;100340.22;4978418;28;20031;-74
2021/01/27 03:35:55;;;;;;;26.80;15.52;;;;;;;1.98;100.00;100353.63;4978729;28;20129;-73
2021/01/27 03:38:41;;;;;;;28.40;16.63;;;;;;;2.08;100.00;100354.56;4977799;28;20031;-73
2021/01/27 03:41:42;;;;;;;27.15;16.17;;;;;;;2.06;100.00;100361.47;4978335;28;20035;-73
2021/01/27 03:44:42;;;;;;;24.85;14.32;;;;;;;1.65;100.00;100360.97;4977795;28;20217;-73
2021/01/27 03:47:52;;;;;;;22.65;14.00;;;;;;;1.95;100.00;100326.88;4978389;28;20031;-73
2021/01/27 03:50:40;;;;;;;23.33;14.10;;;;;;;1.89;100.00;100324.25;4977749;28;20022;-73
2021/01/27 03:53:28;;;;;;;24.00;14.48;;;;;;;2.09;100.00;100339.09;4963961;28;20038;-73
2021/01/27 03:56:29;;;;;;;21.50;12.57;;;;;;;1.93;100.00;100351.84;4977487;28;20370;-72
2021/01/27 03:59:15;;;;;;;16.02;9.95;;;;;;;1.55;100.00;100350.50;4965845;28;20035;-73
2021/01/27 04:02:01;;;;;;;17.65;10.80;;;;;;;1.48;100.00;100356.47;4978102;28;20031;-73
2021/01/27 04:04:47;;;;;;;18.00;11.13;;;;;;;1.37;100.00;100361.47;4979246;28;20487;-73
2021/01/27 04:07:33;;;;;;;16.10;10.50;;;;;;;1.33;100.00;100375.16;4965303;28;20041;-74
2021/01/27 04:10:19;;;;;;;18.30;11.57;;;;;;;1.22;100.00;100379.34;4978920;28;20022;-72
2021/01/27 04:13:05;;;;;;;17.55;10.70;;;;;;;1.44;100.00;100376.19;4977501;28;20444;-72
2021/01/27 04:15:51;;;;;;;17.42;11.18;;;;;;;1.70;100.00;100377.41;4978042;28;20027;-72
2021/01/27 04:18:36;;;;;;;15.57;9.75;;;;;;;1.71;100.00;100380.84;4978122;28;20019;-73
2021/01/27 04:21:22;;;;;;;19.70;11.38;;;;;;;1.38;100.00;100391.59;4977800;28;20488;-74
2021/01/27 04:24:08;;;;;;;18.92;11.40;;;;;;;1.75;100.00;100392.94;4963690;28;20030;-74
2021/01/27 04:26:53;;;;;;;20.42;12.48;;;;;;;1.83;100.00;100402.53;4977589;28;20019;-74
2021/01/27 04:29:40;;;;;;;18.85;12.23;;;;;;;1.91;100.00;100406.06;4977542;28;20114;-74
2021/01/27 04:32:25;;;;;;;21.10;12.23;;;;;;;1.92;100.00;100412.97;4977552;28;20407;-73
2021/01/27 04:35:12;;;;;;;18.00;11.65;;;;;;;1.93;100.00;100416.41;4976614;28;20039;-74
2021/01/27 04:38:00;;;;;;;19.95;12.70;;;;;;;2.17;100.00;100414.13;4977111;28;20042;-73
2021/01/27 04:40:52;;;;;;;19.30;12.30;;;;;;;1.64;100.00;100410.88;4964863;28;20114;-73
2021/01/27 04:43:43;;;;;;;20.98;13.32;;;;;;;1.89;100.00;100418.06;4962732;28;20027;-74
2021/01/27 04:46:34;;;;;;;18.98;12.18;;;;;;;1.90;100.00;100400.88;4977681;28;20534;-74
2021/01/27 04:49:26;;;;;;;20.83;12.68;;;;;;;1.98;100.00;100413.06;4977640;28;20038;-74
2021/01/27 04:52:30;;;;;;;19.80;12.05;;;;;;;1.81;100.00;100414.53;4976857;28;20111;-73
2021/01/27 04:55:57;;;;;;;19.67;11.98;;;;;;;1.65;100.00;100415.19;4977509;28;20031;-73
2021/01/27 04:59:00;;;;;;;18.50;11.73;;;;;;;1.35;100.00;100408.75;4964201;28;20097;-73
2021/01/27 05:02:01;;;;;;;20.63;12.90;;;;;;;1.53;100.00;100394.38;4964186;28;20073;-73
2021/01/27 05:05:07;;;;;;;19.33;11.85;;;;;;;1.66;100.00;100385.09;4976838;28;20061;-73
2021/01/27 05:08:00;;;;;;;22.23;14.05;;;;;;;1.54;100.00;100401.28;4976377;28;20026;-73
2021/01/27 05:11:00;;;;;;;21.95;13.13;;;;;;;2.21;100.00;100405.56;4976909;28;20355;-73
2021/01/27 05:13:50;;;;;;;22.73;14.18;;;;;;;2.25;100.00;100425.41;4976241;28;20459;-73
2021/01/27 05:16:36;;;;;;;24.58;14.45;;;;;;;2.05;100.00;100430.34;4977165;28;20027;-73
2021/01/27 05:19:21;;;;;;;25.52;15.85;;;;;;;2.23;100.00;100416.75;4976882;28;20042;-73
2021/01/27 05:22:08;;;;;;;25.10;14.05;;;;;;;1.60;100.00;100414.25;4977676;28;20023;-74
2021/01/27 05:24:54;;;;;;;27.33;15.80;;;;;;;1.99;100.00;100388.94;4963508;28;20030;-73
2021/01/27 05:27:41;;;;;;;26.55;15.82;;;;;;;1.77;100.00;100399.84;4976340;28;20037;-74
2021/01/27 05:30:32;;;;;;;26.55;15.30;;;;;;;1.70;100.00;100385.16;4976448;28;20038;-74
2021/01/27 05:33:18;;;;;;;27.35;16.33;;;;;;;1.79;100.00;100382.69;4976270;28;20030;-76
2021/01/27 05:36:10;;;;;;;29.50;16.50;;;;;;;1.91;100.00;100380.25;4962471;28;20460;-73
2021/01/27 05:39:14;;;;;;;30.35;16.13;;;;;;;1.67;100.00;100385.09;4974663;28;20476;-72
2021/01/27 05:42:04;;;;;;;32.03;18.30;;;;;;;1.76;100.00;100382.63;4977390;28;20026;-73
2021/01/27 05:44:51;;;;;;;27.33;16.55;;;;;;;1.48;100.00;100379.69;4975511;28;20026;-73
2021/01/27 05:47:38;;;;;;;29.05;17.35;;;;;;;1.33;100.00;100353.69;4976244;28;20337;-73
2021/01/27 05:50:34;;;;;;;32.95;19.25;;;;;;;1.75;100.00;100339.59;4975348;28;20047;-73
2021/01/27 05:53:27;;;;;;;29.02;17.80;;;;;;;1.79;100.00;100358.56;4976160;28;20042;-74
2021/01/27 05:56:19;;;;;;;30.63;16.85;;;;;;;2.26;100.00;100357.38;4975855;28;20034;-74
2021/01/27 05:59:07;;;;;;;30.15;17.80;;;;;;;2.21;100.00;100356.47;4961922;28;20158;-74
2021/01/27 06:02:01;;;;;;;29.80;16.55;;;;;;;2.16;100.00;100356.41;4975241;28;20126;-75
2021/01/27 06:04:57;;;;;;;28.63;18.02;;;;;;;2.45;100.00;100367.88;4976162;28;20118;-74
2021/01/27 06:07:43;;;;;;;32.42;19.00;;;;;;;2.58;100.00;100377.47;4975360;28;20034;-73
2021/01/27 06:10:34;;;;;;;29.85;18.27;;;;;;;2.50;100.00;100389.50;4976076;28;20037;-74
2021/01/27 06:13:28;;;;;;;24.67;15.60;;;;;;;2.32;100.00;100399.63;4975279;28;20113;-73
2021/01/27 06:16:33;;;;;;;33.17;18.63;;;;;;;2.61;100.00;100413.72;4976473;28;20424;-74
2021/01/27 06:19:23;;;;;;;28.88;16.13;;;;;;;2.46;100.00;100433.38;4976093;28;20534;-73
2021/01/27 06:23:02;;;;;;;30.73;18.00;;;;;;;2.89;100.00;100453.66;4975250;28;20043;-74
2021/01/27 06:26:09;;;;;;;26.45;16.15;;;;;;;2.83;100.00;100456.16;4975612;28;20421;-73
2021/01/27 06:29:36;;;;;;;29.58;18.58;;;;;;;2.92;100.00;100446.75;4975622;28;20027;-74
2021/01/27 06:32:28;;;;;;;32.15;18.33;;;;;;;2.78;100.00;100444.91;4962479;28;20049;-74
2021/01/27 06:35:34;;;;;;;28.13;16.15;;;;;;;2.22;100.00;100435.72;4976504;28;20046;-73
2021/01/27 06:38:51;;;;;;;25.05;16.05;;;;;;;2.76;100.00;100429.38;4974918;28;20375;-73
2021/01/27 06:41:54;;;;;;;24.92;15.45;;;;;;;2.39;100.00;100432.47;4962417;28;20026;-74
2021/01/27 06:45:00;;;;;;;23.38;15.30;;;;;;;2.19;100.00;100444.28;4975390;28;20312;-73
2021/01/27 06:47:57;;;;;;;25.70;15.48;;;;;;;2.29;100.00;100435.78;4975472;28;20131;-74
2021/01/27 06:51:14;;;;;;;27.45;16.63;;;;;;;2.73;100.00;100425.91;4975838;28;20451;-74
2021/01/27 06:54:20;;;;;;;25.50;15.55;;;;;;;2.60;100.00;100416.28;4975716;28;20035;-73
2021/01/27 06:57:17;;;;;;;27.77;15.57;;;;;;;2.55;100.00;100423.13;4976528;28;20034;-74
2021/01/27 07:00:47;;;;;;;21.33;13.70;;;;;;;2.02;100.00;100430.31;4966495;28;20027;-74
2021/01/27 07:03:53;;;;;;;21.73;13.45;;;;;;;2.09;100.00;100432.09;4970969;28;20041;-73
2021/01/27 07:06:48;;;;;;;19.85;12.40;;;;;;;1.66;100.00;100424.69;4979665;28;20030;-73
2021/01/27 07:10:04;;;;;;;22.17;13.00;;;;;;;2.28;100.00;100421.13;4979098;28;20031;-74
2021/01/27 07:13:18;;;;;;;22.45;13.02;;;;;;;2.56;100.00;100414.50;4979236;28;20026;-73
2021/01/27 07:16:28;;;;;;;21.05;12.23;;;;;;;2.21;100.00;100390.06;4978908;28;20038;-73
2021/01/27 07:19:56;;;;;;;25.13;15.40;;;;;;;2.41;100.00;100384.22;4978705;28;20054;-73
2021/01/27 07:23:17;;;;;;;20.80;13.85;;;;;;;2.71;100.00;100396.56;4979191;28;20035;-73
2021/01/27 07:26:14;;;;;;;22.40;13.57;;;;;;;1.98;100.00;100392.38;4962168;28;20023;-72
2021/01/27 07:29:09;;;;;;;20.98;13.48;;;;;;;2.03;100.00;100400.16;4978638;28;20145;-73
2021/01/27 07:31:59;;;;;;;19.88;12.00;;;;;;;1.89;100.00;100396.56;4964847;28;20030;-73
2021/01/27 07:34:55;;;;;;;22.20;13.82;;;;;;;1.94;100.00;100398.38;4978657;28;20050;-73
2021/01/27 07:37:48;;;;;;;19.35;12.32;;;;;;;1.71;100.00;100386.88;4979280;28;20035;-73
2021/01/27 07:40:52;;;;;;;20.23;12.30;;;;;;;2.02;100.00;100377.78;4978743;28;20459;-73
2021/01/27 07:43:41;;;;;;;20.45;12.35;;;;;;;2.16;100.00;100365.84;4978291;28;20077;-73
2021/01/27 07:46:37;;;;;;;21.15;13.35;;;;;;;2.18;100.00;100365.06;4978154;28;20027;-74
2021/01/27 07:49:33;;;;;;;21.98;12.63;;;;;;;2.51;100.00;100370.53;4977827;28;20057;-73
2021/01/27 07:52:32;;;;;;;22.88;14.45;;;;;;;3.11;100.00;100377.91;4978007;28;20109;-73
2021/01/27 07:55:35;;;;;;;23.40;14.10;;;;;;;2.56;100.00;100370.56;4965358;28;20038;-73
2021/01/27 07:58:42;;;;;;;23.25;13.95;;;;;;;2.97;100.00;100366.63;4978211;28;20043;-74
2021/01/27 08:01:46;;;;;;;26.13;15.27;;;;;;;2.75;100.00;100365.56;4964673;28;20035;-74
2021/01/27 08:04:50;;;;;;;27.40;14.05;;;;;;;2.84;100.00;100362.19;4977788;28;20027;-73
2021/01/27 08:07:40;;;;;;;24.17;14.93;;;;;;;3.05;100.00;100354.59;4963369;28;20022;-73
2021/01/27 08:10:29;;;;;;;25.63;15.40;;;;;;;3.27;100.00;100361.63;4964257;28;20368;-75
2021/01/27 08:13:18;;;;;;;26.02;16.13;;;;;;;2.92;100.00;100371.75;4964428;28;20030;-74
2021/01/27 08:16:14;;;;;;;30.77;17.77;;;;;;;3.16;100.00;100374.50;4977771;28;20027;-75
2021/01/27 08:19:12;;;;;;;30.98;18.23;;;;;;;3.13;100.00;100378.81;4964416;28;20251;-75
2021/01/27 08:22:00;;;;;;;29.65;17.65;;;;;;;3.19;100.00;100390.06;4964766;28;20027;-74
2021/01/27 08:24:47;;;;;;;26.60;16.02;;;;;;;3.36;100.00;100403.97;4965436;28;20049;-75
2021/01/27 08:27:34;;;;;;;26.23;15.90;;;;;;;3.61;100.00;100394.59;4978337;28;20033;-76
2021/01/27 08:30:22;;;;;;;25.23;16.05;;;;;;;3.80;100.00;100393.84;4977756;28;20316;-77
2021/01/27 08:33:45;;;;;;;28.27;16.75;;;;;;;3.74;100.00;100386.91;4977354;28;20026;-74
2021/01/27 08:36:31;;;;;;;25.25;15.73;;;;;;;4.03;100.00;100385.28;4963602;28;20061;-76
2021/01/27 08:39:24;;;;;;;27.45;16.63;;;;;;;4.10;100.00;100381.84;4976583;28;20037;-75
2021/01/27 08:42:32;;;;;;;28.50;16.60;;;;;;;3.96;100.00;100383.56;4976953;28;20062;-74
2021/01/27 08:45:21;;;;;;;23.90;15.38;;;;;;;3.61;100.00;100385.13;4977375;28;20053;-74
2021/01/27 08:48:07;;;;;;;26.63;16.45;;;;;;;3.95;100.00;100397.34;4979847;28;20030;-74
2021/01/27 08:50:52;;;;;;;30.42;17.48;;;;;;;3.93;100.00;100390.44;4977736;28;20027;-74
2021/01/27 08:53:53;;;;;;;26.45;16.35;;;;;;;3.94;100.00;100399.97;4977569;28;20034;-74
2021/01/27 08:57:15;;;;;;;25.10;16.15;;;;;;;3.97;100.00;100411.19;4977324;28;20027;-74
2021/01/27 09:00:11;;;;;;;65.68;36.38;;;;;;;3.83;100.00;100410.28;4977153;28;20035;-73
2021/01/27 09:03:02;;;;;;;34.38;21.85;;;;;;;4.11;100.00;100419.03;4976781;28;20448;-74
2021/01/27 09:05:48;;;;;;;28.52;17.40;;;;;;;3.91;100.00;100429.28;4976886;28;20034;-73
2021/01/27 09:08:34;;;;;;;25.23;16.48;;;;;;;4.49;100.00;100428.66;4963042;28;20023;-74
2021/01/27 09:11:21;;;;;;;29.98;17.35;;;;;;;3.88;100.00;100420.66;4976813;28;20031;-75
2021/01/27 09:14:13;;;;;;;23.17;14.63;;;;;;;3.93;100.00;100404.25;4976187;28;20093;-76
2021/01/27 09:17:01;;;;;;;25.60;15.93;;;;;;;4.26;100.00;100394.00;4979625;28;20062;-75
2021/01/27 09:19:55;;;;;;;25.45;15.77;;;;;;;3.83;100.00;100405.09;4976136;28;20108;-75
2021/01/27 09:22:43;;;;;;;23.75;15.20;;;;;;;4.21;100.00;100413.00;4977621;28;20154;-74
2021/01/27 09:25:31;;;;;;;22.08;14.98;;;;;;;3.24;100.00;100416.84;4975994;28;20050;-73
2021/01/27 09:28:24;;;;;;;26.88;16.02;;;;;;;4.28;100.00;100409.56;4976912;28;20031;-73
2021/01/27 09:31:20;;;;;;;26.00;16.02;;;;;;;4.23;100.00;100413.88;4976466;28;20042;-74
2021/01/27 09:34:26;;;;;;;24.83;15.65;;;;;;;4.42;100.00;100406.13;4977537;28;20024;-74
2021/01/27 09:37:28;;;;;;;26.05;16.52;;;;;;;4.07;100.00;100402.56;4975284;28;20038;-73
2021/01/27 09:40:25;;;;;;;27.25;17.88;;;;;;;4.31;100.00;100397.47;4976356;28;20027;-74
2021/01/27 09:43:13;;;;;;;24.35;16.25;;;;;;;3.71;100.00;100396.41;4976491;28;20069;-75
2021/01/27 09:46:16;;;;;;;29.50;18.75;;;;;;;4.36;100.00;100387.13;4976727;28;20113;-74
2021/01/27 09:49:16;;;;;;;28.75;18.15;;;;;;;4.57;100.00;100381.94;4976681;28;20069;-74
2021/01/27 09:52:02;;;;;;;30.08;20.27;;;;;;;4.74;100.00;100375.91;4975550;28;20022;-74
2021/01/27 09:54:55;;;;;;;25.77;16.27;;;;;;;4.55;100.00;100358.59;4976054;28;20023;-73
2021/01/27 09:57:42;;;;;;;23.23;14.75;;;;;;;4.35;100.00;100359.47;4976171;28;20026;-73
2021/01/27 10:00:33;;;;;;;24.10;15.48;;;;;;;4.58;100.00;100345.66;4976900;28;20430;-72
2021/01/27 10:03:35;;;;;;;23.33;14.48;;;;;;;4.88;100.00;100334.41;4976103;28;20030;-73
2021/01/27 10:06:43;;;;;;;26.98;17.10;;;;;;;5.00;100.00;100330.06;4976552;28;20463;-73
2021/01/27 10:09:49;;;;;;;30.42;19.30;;;;;;;4.33;100.00;100324.88;4975519;28;20536;-73
2021/01/27 10:12:36;;;;;;;24.30;16.33;;;;;;;4.40;100.00;100340.47;4963035;28;20121;-73
2021/01/27 10:15:34;;;;;;;30.00;18.58;;;;;;;4.51;100.00;100346.50;4975351;28;20033;-72
2021/01/27 10:18:22;;;;;;;27.38;17.70;;;;;;;4.82;100.00;100358.63;4975649;28;20034;-72
2021/01/27 10:21:14;;;;;;;29.33;18.10;;;;;;;4.64;100.00;100360.34;4975282;28;20100;-73
2021/01/27 10:24:00;;;;;;;27.75;17.80;;;;;;;4.93;100.00;100364.69;4975477;28;20371;-73
2021/01/27 10:26:45;;;;;;;26.20;16.23;;;;;;;5.07;100.00;100359.47;4975845;28;20118;-75
2021/01/27 10:29:37;;;;;;;25.10;15.90;;;;;;;4.61;100.00;100345.66;4976465;28;20122;-74
2021/01/27 10:32:32;;;;;;;24.38;15.25;;;;;;;4.55;100.00;100348.22;4959883;28;20056;-74
2021/01/27 10:35:24;;;;;;;21.60;13.90;;;;;;;4.38;100.00;100347.34;4975288;28;20055;-74
2021/01/27 10:38:14;;;;;;;25.17;15.32;;;;;;;4.28;100.00;100357.72;4962470;28;20031;-74
2021/01/27 10:41:20;;;;;;;30.15;16.40;;;;;;;4.10;100.00;100355.94;4961977;28;20030;-74
2021/01/27 10:44:29;;;;;;;23.05;15.27;;;;;;;4.28;100.00;100371.56;4975770;28;20023;-75
2021/01/27 10:47:30;;;;;;;29.08;17.20;;;;;;;4.29;100.00;100362.91;4975693;28;20034;-73
2021/01/27 10:50:15;;;;;;;30.92;19.02;;;;;;;4.31;100.00;100361.16;4975359;28;20031;-74
2021/01/27 10:53:04;;;;;;;39.30;21.55;;;;;;;4.15;100.00;100355.97;4960627;28;20027;-76
2021/01/27 10:55:55;;;;;;;33.45;20.45;;;;;;;4.22;100.00;100352.53;4975946;28;20122;-75
2021/01/27 10:58:40;;;;;;;32.50;19.80;;;;;;;4.11;100.00;100356.81;4975425;28;20525;-75
2021/01/27 11:01:26;;;;;;;34.13;20.67;;;;;;;4.24;100.00;100363.75;4975424;28;20341;-75
2021/01/27 11:04:12;;;;;;;32.00;20.27;;;;;;;3.90;100.00;100365.38;4976042;28;20034;-75
2021/01/27 11:06:58;;;;;;;30.83;19.88;;;;;;;4.19;100.00;100371.50;4976213;28;20363;-75
2021/01/27 11:09:47;;;;;;;31.83;19.40;;;;;;;3.20;100.00;100373.66;4975562;28;20026;-75
2021/01/27 11:12:33;;;;;;;31.58;19.52;;;;;;;3.00;100.00;100372.66;4976305;28;20053;-75
2021/01/27 11:15:19;;;;;;;31.23;19.73;;;;;;;2.81;100.00;100381.13;4975186;28;20034;-74
2021/01/27 11:18:05;;;;;;;29.17;17.80;;;;;;;2.59;100.00;100389.56;4976648;28;20031;-75
2021/01/27 11:20:54;;;;;;;28.20;17.00;;;;;;;3.26;100.00;100384.03;4975681;28;20060;-75
2021/01/27 11:23:40;;;;;;;30.52;17.92;;;;;;;3.24;100.00;100382.31;4975480;28;20117;-75
2021/01/27 11:26:25;;;;;;;28.48;17.63;;;;;;;2.99;100.00;100380.41;4974542;28;20109;-74
2021/01/27 11:29:11;;;;;;;28.38;17.48;;;;;;;3.10;100.00;100374.44;4976300;28;20030;-75
2021/01/27 11:31:57;;;;;;;29.52;17.23;;;;;;;3.41;100.00;100375.50;4974421;28;20415;-74
2021/01/27 11:34:43;;;;;;;30.63;17.63;;;;;;;3.24;100.00;100372.81;4974702;28;20129;-74
2021/01/27 11:37:29;;;;;;;31.80;18.65;;;;;;;3.18;100.00;100371.94;4974797;28;20047;-74
2021/01/27 11:40:18;;;;;;;28.05;16.35;;;;;;;3.13;100.00;100368.44;4975623;28;20030;-75
2021/01/27 11:43:04;;;;;;;28.90;18.20;;;;;;;3.56;100.00;100371.28;4962935;28;20031;-74
2021/01/27 11:45:50;;;;;;;26.67;16.17;;;;;;;3.54;100.00;100359.19;4978498;28;20023;-75
2021/01/27 11:48:37;;;;;;;28.48;17.42;;;;;;;3.69;100.00;100359.25;4965268;28;20053;-74
2021/01/27 11:51:23;;;;;;;26.00;17.33;;;;;;;3.71;100.00;100349.78;4977638;28;20147;-75
2021/01/27 11:54:09;;;;;;;25.92;17.00;;;;;;;3.74;100.00;100360.16;4978262;28;20113;-75
2021/01/27 11:56:55;;;;;;;24.85;15.45;;;;;;;4.16;100.00;100355.09;4977502;28;20035;-75
2021/01/27 11:59:41;;;;;;;23.75;15.95;;;;;;;4.09;100.00;100349.03;4978622;28;20456;-74
2021/01/27 12:02:26;;;;;;;21.77;15.13;;;;;;;4.08;100.00;100336.94;4977276;28;20367;-76
2021/01/27 12:05:13;;;;;;;23.50;15.48;;;;;;;4.25;100.00;100332.66;4978360;28;20026;-74
2021/01/27 12:07:59;;;;;;;26.48;17.35;;;;;;;3.92;100.00;100335.16;4977486;28;20026;-75
2021/01/27 12:10:46;;;;;;;26.83;17.23;;;;;;;3.76;100.00;100337.69;4978093;28;20026;-75
2021/01/27 12:13:32;;;;;;;27.92;17.45;;;;;;;3.93;100.00;100342.06;4977619;28;20034;-73
2021/01/27 12:16:18;;;;;;;28.02;16.92;;;;;;;3.37;100.00;100334.91;4978050;28;20034;-73
2021/01/27 12:19:04;;;;;;;25.85;16.80;;;;;;;3.76;100.00;100332.50;4977803;28;20478;-73
2021/01/27 12:21:50;;;;;;;31.70;19.65;;;;;;;3.82;100.00;100333.38;4976852;28;20033;-73
2021/01/27 12:24:35;;;;;;;25.02;16.60;;;;;;;4.13;100.00;100345.59;4978308;28;20117;-73
2021/01/27 12:27:21;;;;;;;25.77;16.60;;;;;;;3.63;100.00;100336.78;4977740;28;20034;-75
2021/01/27 12:30:14;;;;;;;25.95;16.45;;;;;;;3.44;100.00;100344.44;4978504;28;20030;-75
2021/01/27 12:33:00;;;;;;;26.65;16.98;;;;;;;3.75;100.00;100346.34;4976752;28;20030;-74
2021/01/27 12:35:45;;;;;;;25.08;15.48;;;;;;;3.51;100.00;100354.00;4977716;28;20046;-74
2021/01/27 12:38:32;;;;;;;27.33;17.15;;;;;;;3.84;100.00;100346.34;4977585;28;20372;-75
2021/01/27 12:41:18;;;;;;;24.48;15.38;;;;;;;3.18;100.00;100354.66;4978156;28;20039;-73
2021/01/27 12:44:05;;;;;;;24.48;15.70;;;;;;;3.09;100.00;100353.75;4977920;28;20572;-73
2021/01/27 12:46:53;;;;;;;23.63;14.30;;;;;;;3.35;100.00;100347.88;4977516;28;20372;-74
2021/01/27 12:49:40;;;;;;;22.52;13.65;;;;;;;3.47;100.00;100350.53;4977290;28;20031;-75
2021/01/27 12:52:26;;;;;;;21.80;14.23;;;;;;;3.33;100.00;100357.34;4977347;28;20456;-74
2021/01/27 12:55:15;;;;;;;23.98;15.45;;;;;;;3.46;100.00;100366.06;4963341;28;20041;-74
2021/01/27 12:58:01;;;;;;;21.77;14.27;;;;;;;3.57;100.00;100357.47;4977456;28;20117;-74
2021/01/27 13:00:47;;;;;;;27.33;17.15;;;;;;;3.18;100.00;100359.84;4977004;28;20423;-74
2021/01/27 13:03:34;;;;;;;25.45;16.77;;;;;;;3.25;100.00;100351.25;4964397;28;20041;-75
2021/01/27 13:06:22;;;;;;;28.52;17.00;;;;;;;2.90;100.00;100350.16;4977313;28;20476;-74